Time;durP1;ratioP1;P1;durP2;ratioP2;P2;SDS_P1;SDS_P2;PMS_P1;PMS_P2;Temp;Humidity;BMP_temperature;BMP_pressure;BME280_temperature;BME280_humidity;BME280_pressure;Samples;Min_cycle;Max_cycle;Signal;HPM_P1;HPM_P2
2021/11/06 00:00:16;;;;;;;23.42;10.30;;;;;;;18.66;65.91;102023.56;1702392;83;21051;-55
2021/11/06 00:02:43;;;;;;;17.00;9.68;;;;;;;18.67;65.80;102029.22;1702658;83;21011;-52
2021/11/06 00:05:10;;;;;;;20.43;10.63;;;;;;;18.68;65.79;102032.28;1703661;83;21551;-53
2021/11/06 00:07:36;;;;;;;21.90;9.40;;;;;;;18.68;65.81;102025.69;1704339;84;21044;-54
2021/11/06 00:10:07;;;;;;;25.77;11.12;;;;;;;18.69;65.81;102027.42;1704401;83;21004;-57
2021/11/06 00:12:33;;;;;;;15.83;9.13;;;;;;;18.69;65.70;102030.90;1703100;83;21051;-58
2021/11/06 00:15:01;;;;;;;18.27;9.48;;;;;;;18.70;65.78;102034.41;1699695;83;21631;-53
2021/11/06 00:17:28;;;;;;;17.70;9.98;;;;;;;18.70;65.73;102034.41;1696553;84;21547;-52
2021/11/06 00:19:55;;;;;;;18.55;9.85;;;;;;;18.69;65.83;102026.11;1715694;82;21046;-55
2021/11/06 00:22:21;;;;;;;18.02;9.43;;;;;;;18.70;65.89;102030.45;1705858;83;20998;-56
2021/11/06 00:24:48;;;;;;;21.40;10.38;;;;;;;18.75;65.64;102031.16;1707578;83;21082;-52
2021/11/06 00:27:14;;;;;;;22.50;10.18;;;;;;;18.78;65.54;102027.08;1740247;82;20975;-55
2021/11/06 00:29:41;;;;;;;23.77;10.45;;;;;;;18.80;65.55;102035.80;1736632;81;21023;-56
2021/11/06 00:32:08;;;;;;;23.27;10.08;;;;;;;18.82;65.52;102044.52;1741225;81;20947;-52
2021/11/06 00:34:36;;;;;;;18.80;9.68;;;;;;;18.82;65.51;102041.88;1742006;81;21070;-56
2021/11/06 00:37:03;;;;;;;21.75;10.30;;;;;;;18.83;65.41;102044.94;1737669;81;21026;-53
2021/11/06 00:39:29;;;;;;;19.65;9.70;;;;;;;18.82;65.39;102041.88;1744378;81;20994;-56
2021/11/06 00:41:56;;;;;;;16.97;8.95;;;;;;;18.83;65.36;102040.98;1742782;81;21574;-55
2021/11/06 00:44:22;;;;;;;22.10;10.15;;;;;;;18.83;65.39;102036.16;1707085;83;21513;-55
2021/11/06 00:46:50;;;;;;;20.52;10.40;;;;;;;18.83;65.31;102043.62;1742589;82;21570;-52
2021/11/06 00:49:17;;;;;;;15.63;9.20;;;;;;;18.83;65.31;102045.38;1744401;81;21054;-55
2021/11/06 00:51:43;;;;;;;16.37;8.83;;;;;;;18.84;65.35;102044.45;1744553;81;20963;-58
2021/11/06 00:54:10;;;;;;;15.32;8.90;;;;;;;18.83;65.29;102048.89;1742362;81;20975;-57
2021/11/06 00:56:36;;;;;;;15.40;8.75;;;;;;;18.83;65.36;102056.80;1741559;81;20983;-58
2021/11/06 00:59:04;;;;;;;20.15;10.63;;;;;;;18.84;65.42;102055.88;1741079;81;21039;-54
2021/11/06 01:01:32;;;;;;;17.02;9.25;;;;;;;18.84;65.42;102047.96;1741169;81;21034;-56
2021/11/06 01:03:58;;;;;;;14.43;8.85;;;;;;;18.85;65.28;102049.70;1741205;81;21038;-56
2021/11/06 01:06:25;;;;;;;17.02;10.15;;;;;;;18.77;65.51;102041.20;1743513;81;21085;-59
2021/11/06 01:08:51;;;;;;;21.00;9.50;;;;;;;18.76;65.55;102038.59;1741306;81;21502;-59
2021/11/06 01:11:19;;;;;;;18.05;9.38;;;;;;;18.74;65.53;102030.75;1742154;82;21522;-53
2021/11/06 01:13:47;;;;;;;21.48;9.63;;;;;;;18.76;65.58;102026.73;1744985;81;21022;-56
2021/11/06 01:16:14;;;;;;;19.50;8.45;;;;;;;18.76;65.66;102034.19;1702831;83;21550;-56
2021/11/06 01:18:43;;;;;;;19.70;9.63;;;;;;;18.75;65.59;102035.12;1699407;84;21035;-58
2021/11/06 01:21:09;;;;;;;22.37;10.13;;;;;;;18.75;65.71;102037.75;1697680;84;21074;-58
2021/11/06 01:23:36;;;;;;;18.32;9.70;;;;;;;18.74;65.67;102045.25;1733483;81;21023;-53
2021/11/06 01:26:03;;;;;;;19.70;9.63;;;;;;;18.71;65.75;102048.01;1733792;81;20999;-57
2021/11/06 01:28:30;;;;;;;14.03;9.10;;;;;;;18.75;65.77;102048.30;1732791;81;21097;-54
2021/11/06 01:30:58;;;;;;;22.50;10.03;;;;;;;18.79;65.52;102045.09;1735128;81;21026;-57
2021/11/06 01:33:25;;;;;;;19.27;10.05;;;;;;;18.79;65.44;102042.00;1734429;81;21027;-56
2021/11/06 01:35:51;;;;;;;16.10;10.30;;;;;;;18.77;65.45;102042.97;1735630;82;20994;-58
2021/11/06 01:38:19;;;;;;;21.57;11.55;;;;;;;18.75;65.42;102040.39;1735287;81;21066;-57
2021/11/06 01:40:46;;;;;;;20.92;11.83;;;;;;;18.75;65.43;102041.71;1733469;81;21007;-54
2021/11/06 01:43:14;;;;;;;14.65;11.15;;;;;;;18.74;65.43;102047.88;1733540;81;21014;-54
2021/11/06 01:45:41;;;;;;;18.82;11.63;;;;;;;18.73;65.37;102054.09;1733287;81;21030;-55
2021/11/06 01:48:07;;;;;;;19.65;12.25;;;;;;;18.76;65.23;102065.83;1733662;81;21054;-57
2021/11/06 01:50:34;;;;;;;19.77;11.70;;;;;;;18.76;65.30;102079.02;1734212;81;20982;-60
2021/11/06 01:53:00;;;;;;;18.10;12.60;;;;;;;18.74;65.33;102083.48;1736797;81;20996;-57
2021/11/06 01:55:26;;;;;;;16.42;11.60;;;;;;;18.75;65.30;102074.67;1736675;81;20975;-55
2021/11/06 01:57:53;;;;;;;17.60;12.03;;;;;;;18.73;65.26;102071.23;1734460;81;21890;-57
2021/11/06 02:00:26;;;;;;;19.70;11.40;;;;;;;18.71;65.45;102073.05;1735267;81;21538;-54
2021/11/06 02:02:52;;;;;;;16.80;11.05;;;;;;;18.71;65.53;102073.05;1735838;81;20999;-53
2021/11/06 02:05:18;;;;;;;18.42;12.37;;;;;;;18.71;65.46;102077.46;1732044;82;21015;-54
2021/11/06 02:07:45;;;;;;;18.62;11.57;;;;;;;18.70;65.55;102072.64;1738994;81;21027;-53
2021/11/06 02:10:13;;;;;;;17.45;11.22;;;;;;;18.69;65.56;102066.49;1734923;81;20995;-58
2021/11/06 02:12:41;;;;;;;16.52;10.65;;;;;;;18.69;65.54;102065.66;1733556;81;20983;-55
2021/11/06 02:15:09;;;;;;;15.48;10.90;;;;;;;18.68;65.63;102069.19;1733479;81;20959;-56
2021/11/06 02:17:37;;;;;;;15.13;11.25;;;;;;;18.68;65.59;102063.92;1733665;81;21531;-58
2021/11/06 02:20:05;;;;;;;16.85;11.35;;;;;;;18.62;65.79;102075.99;1733500;81;21459;-54
2021/11/06 02:22:32;;;;;;;15.80;12.55;;;;;;;18.60;65.90;102077.82;1734723;81;21510;-54
2021/11/06 02:24:58;;;;;;;17.32;11.53;;;;;;;18.60;65.90;102076.05;1736660;81;21023;-54
2021/11/06 02:27:25;;;;;;;24.43;12.45;;;;;;;18.61;65.96;102080.84;1736480;81;21086;-59
2021/11/06 02:29:51;;;;;;;20.02;11.73;;;;;;;18.61;65.97;102079.53;1733827;81;21039;-56
2021/11/06 02:32:18;;;;;;;17.82;11.12;;;;;;;18.63;65.98;102073.75;1735242;81;21006;-59
2021/11/06 02:34:45;;;;;;;20.50;11.83;;;;;;;18.63;65.94;102080.34;1735704;82;20955;-58
2021/11/06 02:37:11;;;;;;;18.90;11.12;;;;;;;18.63;65.88;102086.92;1736460;81;21038;-56
2021/11/06 02:39:38;;;;;;;18.30;12.10;;;;;;;18.63;65.83;102094.84;1735837;81;20972;-60
2021/11/06 02:42:08;;;;;;;20.02;13.13;;;;;;;18.64;65.91;102100.53;1733477;81;21023;-57
2021/11/06 02:44:35;;;;;;;21.05;12.28;;;;;;;18.72;65.58;102093.22;1733589;81;21003;-55
2021/11/06 02:47:02;;;;;;;24.40;11.70;;;;;;;18.74;65.53;102091.39;1733703;81;21034;-59
2021/11/06 02:49:31;;;;;;;18.37;12.85;;;;;;;18.75;65.57;102085.22;1733219;81;21003;-59
2021/11/06 02:51:57;;;;;;;16.42;12.10;;;;;;;18.77;65.41;102083.39;1729645;82;21035;-59
2021/11/06 02:54:24;;;;;;;19.45;13.28;;;;;;;18.80;65.28;102091.63;1734708;81;21023;-63
2021/11/06 02:56:51;;;;;;;14.63;11.60;;;;;;;18.78;65.33;102087.73;1733391;81;21031;-60
2021/11/06 02:59:17;;;;;;;17.20;12.55;;;;;;;18.80;65.33;102089.86;1733611;81;20979;-59
2021/11/06 03:01:44;;;;;;;15.80;11.50;;;;;;;18.83;65.31;102104.27;1733277;81;21011;-61
2021/11/06 03:04:12;;;;;;;20.37;12.85;;;;;;;18.85;65.28;102099.81;1733440;81;20999;-56
2021/11/06 03:06:39;;;;;;;19.10;11.85;;;;;;;18.84;65.40;102094.11;1735776;81;21003;-63
2021/11/06 03:09:06;;;;;;;18.48;12.23;;;;;;;18.84;65.34;102091.48;1736642;81;21034;-58
2021/11/06 03:11:33;;;;;;;18.02;12.55;;;;;;;18.79;65.59;102096.52;1725518;81;21011;-56
2021/11/06 03:14:01;;;;;;;24.18;13.28;;;;;;;18.76;65.77;102102.75;1732847;82;21011;-62
2021/11/06 03:16:28;;;;;;;20.17;12.68;;;;;;;18.77;65.77;102107.13;1731592;80;21081;-57
2021/11/06 03:18:54;;;;;;;26.27;13.25;;;;;;;18.80;65.66;102092.95;1749716;80;21074;-61
2021/11/06 03:21:22;;;;;;;22.52;12.58;;;;;;;18.85;65.50;102085.75;1746084;80;21010;-63
2021/11/06 03:23:49;;;;;;;19.95;12.20;;;;;;;18.86;65.42;102090.97;1748738;81;20982;-65
2021/11/06 03:26:17;;;;;;;21.45;12.05;;;;;;;18.86;65.27;102102.83;1749896;80;21026;-59
2021/11/06 03:28:43;;;;;;;21.50;12.98;;;;;;;18.86;65.31;102109.88;1749458;80;20991;-60
2021/11/06 03:31:09;;;;;;;15.32;11.60;;;;;;;18.86;65.37;102121.30;1746782;80;21010;-59
2021/11/06 03:33:36;;;;;;;19.42;12.03;;;;;;;18.85;65.49;102118.27;1746939;80;21042;-58
2021/11/06 03:36:03;;;;;;;15.85;11.60;;;;;;;18.85;65.47;102118.27;1746399;80;21050;-59
2021/11/06 03:38:30;;;;;;;19.95;12.00;;;;;;;18.86;65.38;102114.70;1744452;80;21054;-57
2021/11/06 03:40:58;;;;;;;21.35;12.55;;;;;;;18.87;65.33;102124.35;1749693;80;21069;-57
2021/11/06 03:43:24;;;;;;;16.12;11.80;;;;;;;18.87;65.34;102128.75;1749574;80;21034;-57
2021/11/06 03:45:50;;;;;;;15.25;11.45;;;;;;;18.89;65.35;102148.03;1746615;80;21042;-60
2021/11/06 03:48:17;;;;;;;21.75;12.58;;;;;;;18.88;65.40;102153.75;1748468;81;21002;-59
2021/11/06 03:50:44;;;;;;;22.55;12.90;;;;;;;18.91;65.38;102161.58;1736600;80;20993;-61
2021/11/06 03:53:10;;;;;;;18.10;12.95;;;;;;;18.91;65.37;102165.53;1748470;80;21011;-59
2021/11/06 03:55:37;;;;;;;22.62;12.53;;;;;;;18.93;65.48;102154.92;1747545;80;21057;-61
2021/11/06 03:58:03;;;;;;;19.60;12.75;;;;;;;18.95;65.35;102154.41;1748953;81;21510;-56
2021/11/06 04:00:30;;;;;;;17.48;12.15;;;;;;;18.96;65.32;102146.91;1749448;80;21831;-59
2021/11/06 04:02:57;;;;;;;24.35;12.55;;;;;;;18.96;65.32;102142.48;1743111;80;20975;-57
2021/11/06 04:05:24;;;;;;;22.82;12.85;;;;;;;18.96;65.22;102153.03;1746779;80;21490;-64
2021/11/06 04:07:50;;;;;;;27.75;15.55;;;;;;;18.96;65.32;102160.94;1746832;80;21033;-60
2021/11/06 04:10:17;;;;;;;24.23;14.58;;;;;;;18.99;65.36;102170.53;1748488;80;21548;-60
2021/11/06 04:12:45;;;;;;;27.90;15.13;;;;;;;18.98;65.30;102162.23;1749917;80;21470;-57
2021/11/06 04:15:12;;;;;;;27.65;14.05;;;;;;;19.00;65.27;102165.20;1745533;81;20962;-60
2021/11/06 04:17:39;;;;;;;31.97;14.58;;;;;;;19.01;65.16;102170.02;1748823;80;21089;-60
2021/11/06 04:20:07;;;;;;;26.27;14.30;;;;;;;19.00;65.20;102167.84;1738251;80;21042;-57
2021/11/06 04:22:34;;;;;;;30.23;15.90;;;;;;;19.01;65.29;102177.49;1747767;80;21537;-61
2021/11/06 04:25:03;;;;;;;26.17;15.35;;;;;;;19.02;65.28;102181.00;1752575;80;20947;-60
2021/11/06 04:27:29;;;;;;;27.13;14.43;;;;;;;19.01;65.36;102176.17;1746038;80;21589;-57
2021/11/06 04:29:56;;;;;;;29.25;15.03;;;;;;;19.03;65.30;102180.94;1747586;80;22421;-61
2021/11/06 04:32:22;;;;;;;26.52;15.28;;;;;;;19.05;65.25;102184.38;1748322;80;21085;-59
2021/11/06 04:34:49;;;;;;;30.05;15.13;;;;;;;19.05;65.30;102184.38;1748919;81;20998;-65
2021/11/06 04:37:15;;;;;;;29.07;14.38;;;;;;;19.06;65.32;102199.28;1749783;80;20971;-60
2021/11/06 04:39:42;;;;;;;30.12;15.35;;;;;;;19.06;65.33;102201.92;1749632;80;21014;-62
2021/11/06 04:42:09;;;;;;;29.75;15.63;;;;;;;19.06;65.36;102201.92;1746494;80;20971;-59
2021/11/06 04:44:35;;;;;;;24.80;15.53;;;;;;;19.07;65.32;102211.58;1746928;80;20986;-61
2021/11/06 04:47:03;;;;;;;24.63;14.50;;;;;;;19.08;65.34;102211.97;1747157;80;21014;-57
2021/11/06 04:49:29;;;;;;;22.27;13.75;;;;;;;19.09;65.36;102208.43;1746818;80;21510;-60
2021/11/06 04:51:56;;;;;;;37.53;16.10;;;;;;;19.09;65.36;102201.83;1747166;80;21058;-57
2021/11/06 04:54:22;;;;;;;31.45;16.07;;;;;;;19.11;65.33;102203.96;1749597;80;21007;-60
2021/11/06 04:56:50;;;;;;;36.53;18.20;;;;;;;19.11;65.31;102203.96;1749556;80;21081;-60
2021/11/06 04:59:17;;;;;;;36.75;18.10;;;;;;;19.11;65.20;102215.84;1747873;80;21085;-59
2021/11/06 05:01:44;;;;;;;31.25;15.80;;;;;;;19.12;65.12;102224.17;1748311;80;21030;-61
2021/11/06 05:04:10;;;;;;;26.25;15.08;;;;;;;19.18;65.03;102229.69;1748879;81;20994;-63
2021/11/06 05:06:36;;;;;;;19.48;12.80;;;;;;;19.20;65.04;102230.50;1750023;80;21014;-65
2021/11/06 05:09:03;;;;;;;21.93;13.58;;;;;;;19.22;65.04;102230.86;1749461;80;21038;-60
2021/11/06 05:11:30;;;;;;;19.23;13.62;;;;;;;19.23;64.97;102229.92;1753510;80;21053;-60
2021/11/06 05:13:58;;;;;;;16.27;12.25;;;;;;;19.23;64.99;102239.16;1746849;80;20963;-61
2021/11/06 05:16:26;;;;;;;21.25;13.32;;;;;;;19.25;65.02;102237.33;1736746;81;21125;-63
2021/11/06 05:18:54;;;;;;;41.33;18.10;;;;;;;19.26;65.08;102237.75;1749993;80;21019;-58
2021/11/06 05:21:22;;;;;;;39.42;18.48;;;;;;;19.28;65.08;102246.93;1749621;80;21444;-57
2021/11/06 05:23:49;;;;;;;36.77;17.98;;;;;;;19.29;64.99;102249.51;1746677;80;20983;-60
2021/11/06 05:26:15;;;;;;;47.53;20.08;;;;;;;19.30;64.94;102249.93;1744703;80;21526;-62
2021/11/06 05:28:42;;;;;;;45.58;19.50;;;;;;;19.31;64.90;102251.64;1746618;80;21502;-60
2021/11/06 05:31:10;;;;;;;35.92;17.40;;;;;;;19.32;64.92;102259.98;1753084;80;21014;-60
2021/11/06 05:33:37;;;;;;;40.40;19.15;;;;;;;19.32;64.88;102257.34;1743199;80;21018;-57
2021/11/06 05:36:05;;;;;;;46.58;20.40;;;;;;;19.34;64.87;102266.09;1749807;80;21010;-57
2021/11/06 05:38:32;;;;;;;53.50;23.47;;;;;;;19.34;64.90;102254.22;1746782;80;21045;-59
2021/11/06 05:40:58;;;;;;;59.70;23.98;;;;;;;19.35;64.80;102262.53;1748564;81;21525;-59
2021/11/06 05:43:25;;;;;;;64.65;25.68;;;;;;;19.36;64.78;102264.27;1749652;80;21030;-62
2021/11/06 05:45:52;;;;;;;63.70;27.07;;;;;;;19.37;64.74;102271.25;1733737;80;21026;-58
2021/11/06 05:48:18;;;;;;;57.55;24.70;;;;;;;19.37;64.67;102280.50;1748257;80;21014;-61
2021/11/06 05:50:45;;;;;;;27.93;16.60;;;;;;;19.37;64.67;102276.53;1749423;81;21057;-58
2021/11/06 05:53:12;;;;;;;20.65;14.80;;;;;;;19.35;64.67;102279.69;1749841;80;21014;-58
2021/11/06 05:55:39;;;;;;;20.00;14.73;;;;;;;19.34;64.75;102291.17;1748562;80;21062;-57
2021/11/06 05:58:06;;;;;;;18.02;14.05;;;;;;;19.34;64.80;102293.81;1746559;80;21019;-59
2021/11/06 06:00:33;;;;;;;19.98;13.90;;;;;;;19.35;64.85;102302.13;1746799;80;20986;-57
2021/11/06 06:03:00;;;;;;;20.88;14.60;;;;;;;19.36;64.90;102301.22;1746322;80;21018;-58
2021/11/06 06:05:27;;;;;;;16.70;13.68;;;;;;;19.38;64.97;102309.95;1746679;80;20962;-57
2021/11/06 06:07:53;;;;;;;20.30;14.93;;;;;;;19.39;64.98;102321.38;1748323;80;21487;-58
2021/11/06 06:10:20;;;;;;;18.67;15.68;;;;;;;19.38;65.04;102325.79;1750050;80;21010;-58
2021/11/06 06:12:52;;;;;;;18.65;15.20;;;;;;;19.39;65.03;102331.45;1745062;81;21003;-61
2021/11/06 06:15:20;;;;;;;22.85;15.13;;;;;;;19.40;65.06;102330.56;1736175;80;21022;-60
2021/11/06 06:17:48;;;;;;;20.85;15.93;;;;;;;19.41;65.04;102330.95;1749146;80;21026;-60
2021/11/06 06:20:15;;;;;;;21.93;15.20;;;;;;;19.42;65.08;102324.77;1749723;80;21046;-62
2021/11/06 06:22:41;;;;;;;16.70;14.20;;;;;;;19.43;65.05;102325.64;1748402;80;20987;-58
2021/11/06 06:25:10;;;;;;;19.73;14.73;;;;;;;19.42;65.08;102326.55;1747392;80;21034;-64
2021/11/06 06:27:38;;;;;;;21.27;16.07;;;;;;;19.38;65.12;102335.03;1745333;81;21042;-61
2021/11/06 06:30:07;;;;;;;21.50;16.07;;;;;;;19.39;65.21;102330.14;1749558;80;21033;-63
2021/11/06 06:32:34;;;;;;;19.82;15.58;;;;;;;19.40;65.23;102337.16;1747296;80;20986;-64
2021/11/06 06:35:00;;;;;;;19.62;15.53;;;;;;;19.38;65.21;102341.63;1746731;80;20979;-60
2021/11/06 06:37:27;;;;;;;20.92;14.83;;;;;;;19.36;65.22;102350.05;1746649;80;21011;-67
2021/11/06 06:39:53;;;;;;;20.35;16.82;;;;;;;19.33;65.30;102362.02;1746644;80;20998;-58
2021/11/06 06:42:20;;;;;;;19.70;15.85;;;;;;;19.30;65.33;102359.47;1742874;81;21022;-60
2021/11/06 06:44:47;;;;;;;22.40;17.48;;;;;;;19.28;65.37;102366.56;1741989;80;21081;-61
2021/11/06 06:47:14;;;;;;;23.07;17.25;;;;;;;19.28;65.46;102366.56;1746979;80;21013;-60
2021/11/06 06:49:41;;;;;;;23.55;17.48;;;;;;;19.27;65.43;102366.14;1746661;80;21010;-65
2021/11/06 06:52:08;;;;;;;21.80;17.10;;;;;;;19.26;65.33;102371.03;1749630;80;21022;-63
2021/11/06 06:54:34;;;;;;;23.85;16.82;;;;;;;19.25;65.32;102369.30;1749992;80;21010;-63
2021/11/06 06:57:02;;;;;;;24.10;16.95;;;;;;;19.26;65.41;102367.08;1748701;80;21022;-60
2021/11/06 06:59:32;;;;;;;24.77;17.40;;;;;;;19.26;65.31;102371.03;1747187;80;21041;-61
2021/11/06 07:01:58;;;;;;;23.67;18.30;;;;;;;19.25;65.32;102371.93;1752455;80;21029;-61
2021/11/06 07:04:25;;;;;;;21.10;17.27;;;;;;;19.26;65.23;102377.63;1749671;81;21554;-58
2021/11/06 07:06:53;;;;;;;25.20;18.00;;;;;;;19.23;65.18;102382.13;1749747;80;21518;-58
2021/11/06 07:09:21;;;;;;;23.77;18.07;;;;;;;19.18;65.24;102388.02;1748934;80;21065;-60
2021/11/06 07:11:49;;;;;;;26.45;18.75;;;;;;;19.17;65.44;102385.83;1732009;81;21046;-63
2021/11/06 07:14:16;;;;;;;23.30;18.23;;;;;;;19.18;65.40;102382.74;1749650;80;21101;-63
2021/11/06 07:16:44;;;;;;;21.25;17.20;;;;;;;19.16;65.43;102389.40;1734326;80;21074;-62
2021/11/06 07:19:11;;;;;;;21.45;18.37;;;;;;;19.15;65.50;102390.30;1735010;81;21062;-58
2021/11/06 07:21:38;;;;;;;24.27;18.48;;;;;;;19.14;65.62;102386.39;1736790;81;20991;-62
2021/11/06 07:24:05;;;;;;;21.07;18.37;;;;;;;19.13;65.77;102374.97;1736322;81;21483;-57
2021/11/06 07:26:33;;;;;;;23.73;19.05;;;;;;;19.15;65.79;102376.23;1742175;82;21027;-58
2021/11/06 07:29:00;;;;;;;25.17;19.20;;;;;;;19.16;65.86;102381.48;1740323;81;21038;-60
2021/11/06 07:31:26;;;;;;;20.97;17.95;;;;;;;19.17;65.81;102383.19;1733444;81;20987;-63
2021/11/06 07:33:54;;;;;;;21.73;18.52;;;;;;;19.17;65.89;102387.15;1731509;81;21030;-55
2021/11/06 07:36:24;;;;;;;25.40;18.90;;;;;;;19.17;65.87;102383.19;1735674;81;21058;-56
2021/11/06 07:38:53;;;;;;;25.25;18.90;;;;;;;19.17;65.74;102383.64;1731064;81;21031;-55
2021/11/06 07:41:21;;;;;;;24.70;19.27;;;;;;;19.13;65.78;102384.20;1745396;81;20990;-55
2021/11/06 07:43:48;;;;;;;26.85;20.70;;;;;;;19.08;65.88;102382.14;1728235;81;21038;-56
2021/11/06 07:46:16;;;;;;;27.10;19.98;;;;;;;19.05;65.97;102388.85;1737075;81;21054;-56
2021/11/06 07:48:44;;;;;;;22.58;19.65;;;;;;;19.01;66.07;102393.82;1728605;82;21007;-55
2021/11/06 07:51:11;;;;;;;22.95;18.55;;;;;;;18.97;66.24;102392.19;1736930;82;21472;-55
2021/11/06 07:53:37;;;;;;;22.75;19.65;;;;;;;18.94;66.38;102400.17;1735921;81;21014;-56
2021/11/06 07:56:04;;;;;;;24.27;21.68;;;;;;;18.89;66.42;102404.75;1737845;81;21054;-56
2021/11/06 07:58:31;;;;;;;29.37;24.15;;;;;;;18.83;66.43;102411.97;1735756;81;21083;-57
2021/11/06 08:00:59;;;;;;;31.27;26.17;;;;;;;18.76;66.56;102413.92;1733131;81;21023;-57
2021/11/06 08:03:27;;;;;;;30.10;26.85;;;;;;;18.71;66.53;102413.21;1738915;81;21027;-57
2021/11/06 08:05:54;;;;;;;32.40;27.95;;;;;;;18.66;66.62;102423.88;1734991;82;21460;-53
2021/11/06 08:08:21;;;;;;;35.88;28.02;;;;;;;18.62;66.61;102427.96;1742183;81;21050;-59
2021/11/06 08:10:48;;;;;;;37.98;30.70;;;;;;;18.57;66.67;102426.77;1733971;81;21019;-56
2021/11/06 08:13:15;;;;;;;37.05;30.97;;;;;;;18.51;66.78;102429.58;1731960;81;21042;-55
2021/11/06 08:15:42;;;;;;;37.88;30.62;;;;;;;18.47;66.95;102420.48;1738451;81;21014;-57
2021/11/06 08:18:09;;;;;;;39.63;31.52;;;;;;;18.45;67.12;102418.34;1737086;81;21582;-53
2021/11/06 08:20:36;;;;;;;37.90;30.95;;;;;;;18.45;67.32;102429.75;1741129;81;20964;-55
2021/11/06 08:23:02;;;;;;;38.90;31.93;;;;;;;18.46;67.33;102438.53;1733366;81;21324;-57
2021/11/06 08:25:30;;;;;;;40.35;31.15;;;;;;;18.46;67.32;102442.48;1732828;82;20988;-57
2021/11/06 08:27:56;;;;;;;39.53;32.70;;;;;;;18.47;67.29;102456.94;1746494;81;20983;-56
2021/11/06 08:30:23;;;;;;;40.08;32.10;;;;;;;18.48;67.24;102453.41;1738428;81;20999;-56
2021/11/06 08:32:53;;;;;;;44.33;34.25;;;;;;;18.48;67.22;102468.36;1739082;81;20979;-56
2021/11/06 08:35:21;;;;;;;43.13;33.60;;;;;;;18.43;67.15;102468.47;1735432;81;21102;-57
2021/11/06 08:37:48;;;;;;;47.25;34.90;;;;;;;18.42;67.27;102481.66;1741341;82;21026;-55
2021/11/06 08:40:16;;;;;;;40.48;33.00;;;;;;;18.40;67.30;102478.20;1736067;82;21019;-55
2021/11/06 08:42:43;;;;;;;41.02;30.85;;;;;;;18.39;67.44;102476.46;1739683;81;21046;-53
2021/11/06 08:45:11;;;;;;;29.67;25.12;;;;;;;18.32;67.70;102489.41;1743143;82;21515;-56
2021/11/06 08:47:41;;;;;;;26.33;20.37;;;;;;;18.28;67.66;102484.65;1743193;81;21027;-54
2021/11/06 08:50:13;;;;;;;21.55;17.48;;;;;;;18.27;67.50;102489.52;1743266;81;20990;-55
2021/11/06 08:52:40;;;;;;;;;;;;;;;18.23;67.24;102485.69;1747504;81;21014;-56
2021/11/06 09:02:09;;;;;;;20.25;14.73;;;;;;;18.11;67.23;102500.49;1741551;82;21631;-57
2021/11/06 09:04:36;;;;;;;19.25;15.35;;;;;;;18.11;67.05;102504.45;1744615;82;21006;-53
2021/11/06 09:07:04;;;;;;;19.27;15.48;;;;;;;18.10;66.83;102497.43;1744315;81;21538;-53
2021/11/06 09:09:31;;;;;;;21.42;15.38;;;;;;;18.06;66.74;102486.55;1744160;81;21012;-56
2021/11/06 09:11:58;;;;;;;21.52;14.98;;;;;;;18.04;66.73;102489.69;1736364;81;21014;-52
2021/11/06 09:14:24;;;;;;;26.17;15.05;;;;;;;18.02;66.70;102490.17;1732056;81;21015;-57
2021/11/06 09:16:51;;;;;;;19.57;14.87;;;;;;;18.03;66.70;102498.50;1740093;81;21486;-56
2021/11/06 09:19:17;;;;;;;20.68;14.58;;;;;;;18.04;66.53;102497.59;1739725;82;21119;-55
2021/11/06 09:21:44;;;;;;;20.17;15.00;;;;;;;18.04;66.45;102502.86;1740921;81;20980;-53
2021/11/06 09:24:13;;;;;;;17.27;14.63;;;;;;;18.06;66.51;102506.31;1739856;82;21565;-53
2021/11/06 09:26:43;;;;;;;20.05;16.42;;;;;;;18.10;66.29;102505.33;1739478;81;21093;-56
2021/11/06 09:29:11;;;;;;;21.57;16.55;;;;;;;18.11;65.93;102509.71;1739710;81;20983;-53
2021/11/06 09:31:39;;;;;;;20.82;14.28;;;;;;;18.06;65.90;102514.22;1740221;81;21049;-57
2021/11/06 09:34:06;;;;;;;17.00;14.70;;;;;;;18.03;65.77;102521.77;1745894;81;20963;-63
2021/11/06 09:36:33;;;;;;;15.70;13.62;;;;;;;18.00;65.68;102520.95;1740012;81;21498;-58
2021/11/06 09:39:02;;;;;;;16.27;12.25;;;;;;;17.95;65.68;102513.16;1742160;81;20974;-57
2021/11/06 09:41:29;;;;;;;17.42;12.45;;;;;;;17.96;65.47;102521.94;1748227;81;21015;-57
2021/11/06 09:43:55;;;;;;;16.55;12.43;;;;;;;17.99;65.22;102520.56;1743297;81;21521;-61
2021/11/06 09:46:22;;;;;;;17.35;11.85;;;;;;;18.00;65.02;102515.24;1748723;81;21561;-59
2021/11/06 09:48:49;;;;;;;16.05;11.97;;;;;;;18.03;64.87;102513.87;1747456;82;21058;-56
2021/11/06 09:51:17;;;;;;;14.98;11.80;;;;;;;18.04;64.51;102512.08;1750271;81;21499;-54
2021/11/06 09:53:46;;;;;;;13.68;11.60;;;;;;;18.06;64.15;102516.85;1746953;81;21061;-60
2021/11/06 09:56:19;;;;;;;14.38;11.22;;;;;;;18.10;64.06;102508.84;1752302;80;20965;-53
2021/11/06 09:58:45;;;;;;;14.63;10.72;;;;;;;18.17;64.02;102502.97;1755260;81;20980;-53
2021/11/06 10:01:12;;;;;;;16.25;11.15;;;;;;;18.23;63.49;102508.95;1743618;81;21518;-54
2021/11/06 10:03:39;;;;;;;11.80;9.83;;;;;;;18.27;63.13;102507.97;1749953;81;21494;-53
2021/11/06 10:06:07;;;;;;;12.82;8.78;;;;;;;18.33;62.59;102500.34;1745985;81;21042;-52
2021/11/06 10:08:38;;;;;;;11.35;7.55;;;;;;;18.34;61.62;102504.25;1737453;81;21049;-55
2021/11/06 10:11:11;;;;;;;10.18;7.78;;;;;;;18.34;60.91;102499.45;1703415;84;20979;-56
2021/11/06 10:13:59;;;;;;;12.50;7.70;;;;;;;18.33;60.41;102501.22;1708999;84;21078;-53
2021/11/06 10:16:38;;;;;;;9.70;8.20;;;;;;;18.34;60.53;102507.36;1696105;84;21114;-56
2021/11/06 10:19:14;;;;;;;9.55;7.22;;;;;;;18.36;60.54;102518.73;1697690;84;21027;-52
2021/11/06 10:21:44;;;;;;;9.10;7.20;;;;;;;18.43;60.25;102518.55;1671269;86;21584;-52
2021/11/06 10:24:11;;;;;;;8.20;5.62;;;;;;;18.52;60.21;102527.99;1630508;87;21070;-53
2021/11/06 10:26:39;;;;;;;11.73;5.62;;;;;;;18.56;59.48;102532.28;1652284;86;21609;-53
2021/11/06 10:29:16;;;;;;;7.03;4.80;;;;;;;18.54;58.71;102520.91;1645397;86;21003;-52
2021/11/06 10:32:01;;;;;;;6.00;4.58;;;;;;;18.49;58.57;102513.12;1670313;86;21148;-56
2021/11/06 10:34:32;;;;;;;10.18;5.05;;;;;;;18.47;58.44;102510.97;1654277;85;21048;-53
2021/11/06 10:37:13;;;;;;;9.05;5.30;;;;;;;18.46;58.62;102512.34;1644514;86;21121;-54
2021/11/06 10:39:58;;;;;;;6.35;4.45;;;;;;;18.47;58.64;102512.73;1655302;86;21031;-55
2021/11/06 10:42:25;;;;;;;8.23;4.65;;;;;;;18.48;58.39;102513.16;1646499;86;21077;-53
2021/11/06 10:44:53;;;;;;;8.28;4.67;;;;;;;18.51;58.11;102528.44;1647745;86;21566;-52
2021/11/06 10:47:19;;;;;;;5.78;4.47;;;;;;;18.50;57.77;102529.80;1650523;86;21056;-51
2021/11/06 10:49:49;;;;;;;11.03;5.50;;;;;;;18.49;57.57;102529.38;1633766;87;21063;-50
2021/11/06 10:52:18;;;;;;;11.57;5.15;;;;;;;18.49;57.77;102529.38;1646670;86;21503;-56
2021/11/06 10:55:06;;;;;;;7.42;4.90;;;;;;;18.53;57.93;102527.07;1643901;86;21030;-55
2021/11/06 10:57:32;;;;;;;6.60;4.50;;;;;;;18.59;58.36;102530.86;1644795;86;21024;-54
2021/11/06 11:00:19;;;;;;;9.15;6.17;;;;;;;18.66;58.49;102535.08;1651371;86;21019;-51
2021/11/06 11:02:46;;;;;;;6.08;5.08;;;;;;;18.67;58.11;102538.98;1682983;85;21070;-58
2021/11/06 11:05:36;;;;;;;7.58;5.30;;;;;;;18.65;58.13;102529.38;1679827;84;21050;-54
2021/11/06 11:08:07;;;;;;;5.75;3.95;;;;;;;18.68;58.44;102529.30;1655971;85;21052;-53
2021/11/06 11:10:36;;;;;;;6.03;4.35;;;;;;;18.75;58.04;102528.25;1652364;86;21078;-53
2021/11/06 11:13:17;;;;;;;6.90;3.75;;;;;;;18.83;57.91;102508.24;1646580;86;21026;-55
2021/11/06 11:15:48;;;;;;;6.75;4.22;;;;;;;18.93;57.28;102511.90;1648586;86;21036;-55
2021/11/06 11:18:35;;;;;;;6.97;4.28;;;;;;;18.97;56.77;102514.86;1583917;90;21658;-57
2021/11/06 11:21:15;;;;;;;4.85;3.87;;;;;;;19.00;56.34;102505.52;1566962;90;21636;-57